| time (UTC) | temp F | wind direction | speed MPH | gust MPH | rain 1hr in | rain 24hr in | rain mn in | humidity % | barometer mb |
| 20260502214310 | 69 | 0.0 | 0.0 | 0.00 | 0.00 | 0.00 | 100 | 930.3 | |
| 20260502213810 | 70 | 0.0 | 0.0 | 0.00 | 0.00 | 0.00 | 100 | 930.3 | |
| 20260502213310 | 71 | 0.0 | 0.0 | 0.00 | 0.00 | 0.00 | 100 | 930.3 | |
| 20260502212810 | 71 | 0.0 | 0.0 | 0.00 | 0.00 | 0.00 | 100 | 930.3 | |
| 20260502212310 | 71 | 0.0 | 0.0 | 0.00 | 0.00 | 0.00 | 100 | 930.3 | |
| 20260502211810 | 71 | 0.0 | 0.0 | 0.00 | 0.00 | 0.00 | 100 | 930.3 | |
| 20260502211310 | 71 | 0.0 | 0.0 | 0.00 | 0.00 | 0.00 | 100 | 930.3 | |
| 20260502210810 | 72 | 0.0 | 0.0 | 0.00 | 0.00 | 0.00 | 100 | 930.3 | |
| 20260502210310 | 72 | 0.0 | 0.0 | 0.00 | 0.00 | 0.00 | 100 | 930.3 | |
| 20260502205810 | 72 | 0.0 | 0.0 | 0.00 | 0.00 | 0.00 | 100 | 930.3 | |
| 20260502205310 | 73 | 0.0 | 0.0 | 0.00 | 0.00 | 0.00 | 99 | 930.3 | |
| 20260502204810 | 73 | 0.0 | 0.0 | 0.00 | 0.00 | 0.00 | 100 | 930.4 | |
| 20260502204310 | 73 | 0.0 | 0.0 | 0.00 | 0.00 | 0.00 | 100 | 930.4 | |
| 20260502203810 | 73 | 0.0 | 0.0 | 0.00 | 0.00 | 0.00 | 95 | 930.4 | |
| 20260502203310 | 73 | 0.0 | 0.0 | 0.00 | 0.00 | 0.00 | 100 | 930.4 | |
| 20260502202810 | 73 | 0.0 | 0.0 | 0.00 | 0.00 | 0.00 | 96 | 930.3 | |
| 20260502202310 | 74 | 0.0 | 0.0 | 0.00 | 0.00 | 0.00 | 97 | 930.4 | |
| 20260502201810 | 74 | 0.0 | 0.0 | 0.00 | 0.00 | 0.00 | 95 | 930.4 | |
| 20260502201310 | 74 | 0.0 | 0.0 | 0.00 | 0.00 | 0.00 | 94 | 930.4 | |
| 20260502200810 | 74 | 0.0 | 0.0 | 0.00 | 0.00 | 0.00 | 99 | 930.4 | |
| 20260502200310 | 75 | 0.0 | 0.0 | 0.00 | 0.00 | 0.00 | 92 | 930.4 | |
| 20260502195810 | 75 | 0.0 | 0.0 | 0.00 | 0.00 | 0.00 | 92 | 930.3 | |
| 20260502195310 | 75 | 0.0 | 0.0 | 0.00 | 0.00 | 0.00 | 94 | 930.3 | |
| 20260502194810 | 75 | 0.0 | 0.0 | 0.00 | 0.00 | 0.00 | 99 | 930.3 | |
| 20260502194310 | 76 | 0.0 | 0.0 | 0.00 | 0.00 | 0.00 | 95 | 930.2 | |
| 20260502193810 | 76 | 0.0 | 0.0 | 0.00 | 0.00 | 0.00 | 87 | 930.1 | |
| 20260502193310 | 77 | 0.0 | 0.0 | 0.00 | 0.00 | 0.00 | 90 | 930.1 | |
| 20260502192810 | 77 | 0.0 | 0.0 | 0.00 | 0.00 | 0.00 | 92 | 930.1 | |
| 20260502192310 | 78 | 0.0 | 0.0 | 0.00 | 0.00 | 0.00 | 84 | 930.0 | |
| 20260502191810 | 78 | 0.0 | 0.0 | 0.00 | 0.00 | 0.00 | 79 | 930.0 | |
| 20260502191310 | 78 | 0.0 | 0.0 | 0.00 | 0.00 | 0.00 | 76 | 930.0 | |
| 20260502190810 | 79 | 0.0 | 0.0 | 0.00 | 0.00 | 0.00 | 82 | 930.0 | |
| 20260502190310 | 79 | 0.0 | 0.0 | 0.00 | 0.00 | 0.00 | 77 | 929.9 | |
| 20260502185810 | 79 | 0.0 | 0.0 | 0.00 | 0.00 | 0.00 | 79 | 929.9 | |
| 20260502185310 | 80 | 0.0 | 0.0 | 0.00 | 0.00 | 0.00 | 78 | 929.7 | |
| 20260502184810 | 81 | 0.0 | 0.0 | 0.00 | 0.00 | 0.00 | 74 | 929.7 | |
| 20260502184310 | 81 | 0.0 | 0.0 | 0.00 | 0.00 | 0.00 | 75 | 929.6 | |
| 20260502183810 | 81 | 0.0 | 0.0 | 0.00 | 0.00 | 0.00 | 77 | 929.5 | |
| 20260502183310 | 82 | 0.0 | 0.0 | 0.00 | 0.00 | 0.00 | 72 | 929.4 | |
| 20260502182810 | 82 | 0.0 | 0.0 | 0.00 | 0.00 | 0.00 | 72 | 929.4 | |
| 20260502182310 | 83 | 0.0 | 0.0 | 0.00 | 0.00 | 0.00 | 69 | 929.3 | |
| 20260502181810 | 84 | 0.0 | 0.0 | 0.00 | 0.00 | 0.00 | 69 | 929.2 | |
| 20260502181310 | 84 | 0.0 | 0.0 | 0.00 | 0.00 | 0.00 | 63 | 929.1 | |
| 20260502180810 | 85 | 0.0 | 0.0 | 0.00 | 0.00 | 0.00 | 62 | 929.0 | |
| 20260502180310 | 85 | 0.0 | 0.0 | 0.00 | 0.00 | 0.00 | 60 | 929.0 | |
| 20260502170310 | 97 | 0.0 | 0.0 | 0.00 | 0.00 | 0.00 | 34 | 928.3 | |
| 20260502164310 | 101 | 0.0 | 0.0 | 0.00 | 0.00 | 0.00 | 29 | 928.3 | |
| 20260502163810 | 102 | 0.0 | 0.0 | 0.00 | 0.00 | 0.00 | 28 | 928.3 | |
| 20260502163310 | 103 | 0.0 | 0.0 | 0.00 | 0.00 | 0.00 | 27 | 928.3 | |
| 20260502162810 | 105 | 0.0 | 0.0 | 0.00 | 0.00 | 0.00 | 26 | 928.3 | |
| 20260502162310 | 106 | 0.0 | 0.0 | 0.00 | 0.00 | 0.00 | 24 | 928.4 | |
| 20260502161810 | 107 | 0.0 | 0.0 | 0.00 | 0.00 | 0.00 | 26 | 928.4 | |
| 20260502161310 | 106 | 0.0 | 0.0 | 0.00 | 0.00 | 0.00 | 25 | 928.4 | |
| 20260502160810 | 108 | 0.0 | 0.0 | 0.00 | 0.00 | 0.00 | 24 | 928.4 | |
| 20260502160310 | 108 | 0.0 | 0.0 | 0.00 | 0.00 | 0.00 | 25 | 928.5 | |
| 20260502152310 | 116 | 0.0 | 0.0 | 0.00 | 0.00 | 0.00 | 21 | 928.8 | |
| 20260502151810 | 115 | 0.0 | 0.0 | 0.00 | 0.00 | 0.00 | 20 | 928.9 | |
| 20260502151310 | 115 | 0.0 | 0.0 | 0.00 | 0.00 | 0.00 | 21 | 928.9 | |
| 20260502150810 | 116 | 0.0 | 0.0 | 0.00 | 0.00 | 0.00 | 21 | 929.0 | |
| 20260502150310 | 118 | 0.0 | 0.0 | 0.00 | 0.00 | 0.00 | 20 | 929.0 | |
| 20260502130310 | 113 | 0.0 | 0.0 | 0.00 | 0.00 | 0.00 | 24 | 930.5 | |
| 20260502123810 | 109 | 0.0 | 0.0 | 0.00 | 0.00 | 0.00 | 26 | 930.8 | |
| 20260502123310 | 110 | 0.0 | 0.0 | 0.00 | 0.00 | 0.00 | 26 | 930.9 | |
| 20260502122810 | 108 | 0.0 | 0.0 | 0.00 | 0.00 | 0.00 | 28 | 930.9 | |
| 20260502122310 | 107 | 0.0 | 0.0 | 0.00 | 0.00 | 0.00 | 27 | 931.0 | |
| 20260502121810 | 106 | 0.0 | 0.0 | 0.00 | 0.00 | 0.00 | 31 | 931.1 | |
| 20260502121310 | 105 | 0.0 | 0.0 | 0.00 | 0.00 | 0.00 | 31 | 931.1 | |
| 20260502120810 | 103 | 0.0 | 0.0 | 0.00 | 0.00 | 0.00 | 35 | 931.2 | |
| 20260502120310 | 100 | 0.0 | 0.0 | 0.00 | 0.00 | 0.00 | 36 | 931.3 | |
| 20260502115810 | 98 | 0.0 | 0.0 | 0.00 | 0.00 | 0.00 | 35 | 931.4 | |
| 20260502115310 | 96 | 0.0 | 0.0 | 0.00 | 0.00 | 0.00 | 40 | 931.4 | |
| 20260502114810 | 93 | 0.0 | 0.0 | 0.00 | 0.00 | 0.00 | 43 | 931.5 | |
| 20260502114310 | 90 | 0.0 | 0.0 | 0.00 | 0.00 | 0.00 | 38 | 931.6 | |
| 20260502113810 | 89 | 0.0 | 0.0 | 0.00 | 0.00 | 0.00 | 37 | 931.7 | |
| 20260502113310 | 89 | 0.0 | 0.0 | 0.00 | 0.00 | 0.00 | 41 | 931.7 | |
| 20260502112810 | 89 | 0.0 | 0.0 | 0.00 | 0.00 | 0.00 | 44 | 931.9 | |
| 20260502112310 | 88 | 0.0 | 0.0 | 0.00 | 0.00 | 0.00 | 41 | 931.9 | |
| 20260502111810 | 88 | 0.0 | 0.0 | 0.00 | 0.00 | 0.00 | 39 | 932.0 | |
| 20260502111310 | 88 | 0.0 | 0.0 | 0.00 | 0.00 | 0.00 | 42 | 932.0 | |
| 20260502110810 | 87 | 0.0 | 0.0 | 0.00 | 0.00 | 0.00 | 39 | 932.1 | |
| 20260502110310 | 87 | 0.0 | 0.0 | 0.00 | 0.00 | 0.00 | 41 | 932.1 | |
| 20260502105810 | 87 | 0.0 | 0.0 | 0.00 | 0.00 | 0.00 | 42 | 932.2 | |
| 20260502105310 | 87 | 0.0 | 0.0 | 0.00 | 0.00 | 0.00 | 43 | 932.2 | |
| 20260502104810 | 87 | 0.0 | 0.0 | 0.00 | 0.00 | 0.00 | 45 | 932.3 | |
| 20260502104310 | 87 | 0.0 | 0.0 | 0.00 | 0.00 | 0.00 | 48 | 932.4 | |
| 20260502103810 | 86 | 0.0 | 0.0 | 0.00 | 0.00 | 0.00 | 53 | 932.5 | |
| 20260502103310 | 86 | 0.0 | 0.0 | 0.00 | 0.00 | 0.00 | 47 | 932.6 | |
| 20260502102810 | 86 | 0.0 | 0.0 | 0.00 | 0.00 | 0.00 | 55 | 932.7 | |
| 20260502102310 | 86 | 0.0 | 0.0 | 0.00 | 0.00 | 0.00 | 55 | 932.8 | |
| 20260502101810 | 85 | 0.0 | 0.0 | 0.00 | 0.00 | 0.00 | 57 | 932.8 | |
| 20260502101310 | 85 | 0.0 | 0.0 | 0.00 | 0.00 | 0.00 | 56 | 932.9 | |
| 20260502100810 | 85 | 0.0 | 0.0 | 0.00 | 0.00 | 0.00 | 58 | 932.9 | |
| 20260502100310 | 84 | 0.0 | 0.0 | 0.00 | 0.00 | 0.00 | 64 | 933.0 | |
| 20260502091310 | 82 | 0.0 | 0.0 | 0.00 | 0.00 | 0.00 | 82 | 933.5 | |
| 20260502090810 | 81 | 0.0 | 0.0 | 0.00 | 0.00 | 0.00 | 81 | 933.6 | |
| 20260502090310 | 81 | 0.0 | 0.0 | 0.00 | 0.00 | 0.00 | 88 | 933.7 | |
| 20260502071310 | 68 | 0.0 | 0.0 | 0.00 | 0.00 | 0.00 | 100 | 934.7 | |
| 20260502070810 | 67 | 0.0 | 0.0 | 0.00 | 0.00 | 0.00 | 100 | 934.8 | |
| 20260502070310 | 67 | 0.0 | 0.0 | 0.00 | 0.00 | 0.00 | 100 | 934.8 | |
| 20260502065810 | 66 | 0.0 | 0.0 | 0.00 | 0.00 | 0.00 | 100 | 934.8 | |
| 20260502065310 | 66 | 0.0 | 0.0 | 0.00 | 0.00 | 0.00 | 100 | 934.9 | |
| 20260502064810 | 65 | 0.0 | 0.0 | 0.00 | 0.00 | 0.00 | 100 | 935.0 | |
| 20260502064310 | 64 | 0.0 | 0.0 | 0.00 | 0.00 | 0.00 | 100 | 935.0 | |
| 20260502063810 | 64 | 0.0 | 0.0 | 0.00 | 0.00 | 0.00 | 100 | 935.1 | |
| 20260502063310 | 63 | 0.0 | 0.0 | 0.00 | 0.00 | 0.00 | 100 | 935.1 | |
| 20260502062810 | 62 | 0.0 | 0.0 | 0.00 | 0.00 | 0.00 | 100 | 935.2 | |
| 20260502062310 | 62 | 0.0 | 0.0 | 0.00 | 0.00 | 0.00 | 100 | 935.2 | |
| 20260502061810 | 61 | 0.0 | 0.0 | 0.00 | 0.00 | 0.00 | 100 | 935.2 | |
| 20260502061310 | 61 | 0.0 | 0.0 | 0.00 | 0.00 | 0.00 | 100 | 935.3 | |
| 20260502060810 | 60 | 0.0 | 0.0 | 0.00 | 0.00 | 0.00 | 100 | 935.3 | |
| 20260502060310 | 60 | 0.0 | 0.0 | 0.00 | 0.00 | 0.00 | 100 | 935.3 | |
| 20260502055810 | 59 | 0.0 | 0.0 | 0.00 | 0.00 | 0.00 | 100 | 935.3 | |
| 20260502055310 | 59 | 0.0 | 0.0 | 0.00 | 0.00 | 0.00 | 100 | 935.2 | |
| 20260502054810 | 58 | 0.0 | 0.0 | 0.00 | 0.00 | 0.00 | 100 | 935.3 | |
| 20260502054310 | 58 | 0.0 | 0.0 | 0.00 | 0.00 | 0.00 | 100 | 935.3 | |
| 20260502053810 | 58 | 0.0 | 0.0 | 0.00 | 0.00 | 0.00 | 100 | 935.4 | |
| 20260502053310 | 58 | 0.0 | 0.0 | 0.00 | 0.00 | 0.00 | 100 | 935.4 | |
| 20260502052810 | 57 | 0.0 | 0.0 | 0.00 | 0.00 | 0.00 | 100 | 935.4 | |
| 20260502052310 | 57 | 0.0 | 0.0 | 0.00 | 0.00 | 0.00 | 100 | 935.4 | |
| 20260502051810 | 57 | 0.0 | 0.0 | 0.00 | 0.00 | 0.00 | 100 | 935.4 | |
| 20260502051310 | 57 | 0.0 | 0.0 | 0.00 | 0.00 | 0.00 | 100 | 935.4 | |
| 20260502050810 | 57 | 0.0 | 0.0 | 0.00 | 0.00 | 0.00 | 100 | 935.4 | |
| 20260502050310 | 57 | 0.0 | 0.0 | 0.00 | 0.00 | 0.00 | 100 | 935.4 | |
| 20260502045810 | 57 | 0.0 | 0.0 | 0.00 | 0.00 | 0.00 | 100 | 935.4 | |
| 20260502045310 | 57 | 0.0 | 0.0 | 0.00 | 0.00 | 0.00 | 100 | 935.4 | |
| 20260502044810 | 56 | 0.0 | 0.0 | 0.00 | 0.00 | 0.00 | 100 | 935.3 | |
| 20260502044310 | 56 | 0.0 | 0.0 | 0.00 | 0.00 | 0.00 | 100 | 935.4 | |
| 20260502043810 | 56 | 0.0 | 0.0 | 0.00 | 0.00 | 0.00 | 100 | 935.4 | |
| 20260502043310 | 57 | 0.0 | 0.0 | 0.00 | 0.00 | 0.00 | 100 | 935.3 | |
| 20260502042810 | 56 | 0.0 | 0.0 | 0.00 | 0.00 | 0.00 | 100 | 935.3 | |
| 20260502042310 | 56 | 0.0 | 0.0 | 0.00 | 0.00 | 0.00 | 100 | 935.3 | |
| 20260502041810 | 56 | 0.0 | 0.0 | 0.00 | 0.00 | 0.00 | 100 | 935.3 | |
| 20260502041310 | 56 | 0.0 | 0.0 | 0.00 | 0.00 | 0.00 | 100 | 935.3 | |
| 20260502040810 | 56 | 0.0 | 0.0 | 0.00 | 0.00 | 0.00 | 100 | 935.3 | |
| 20260502040310 | 56 | 0.0 | 0.0 | 0.00 | 0.00 | 0.00 | 100 | 935.3 | |
| 20260502035810 | 56 | 0.0 | 0.0 | 0.00 | 0.00 | 0.00 | 100 | 935.3 | |
| 20260502035310 | 56 | 0.0 | 0.0 | 0.00 | 0.00 | 0.00 | 100 | 935.2 | |
| 20260502034810 | 56 | 0.0 | 0.0 | 0.00 | 0.00 | 0.00 | 100 | 935.2 | |
| 20260502034310 | 56 | 0.0 | 0.0 | 0.00 | 0.00 | 0.00 | 100 | 935.1 | |
| 20260502033810 | 56 | 0.0 | 0.0 | 0.00 | 0.00 | 0.00 | 100 | 935.1 | |
| 20260502033310 | 56 | 0.0 | 0.0 | 0.00 | 0.00 | 0.00 | 100 | 935.0 | |
| 20260502032810 | 57 | 0.0 | 0.0 | 0.00 | 0.00 | 0.00 | 100 | 935.0 | |
| 20260502032310 | 57 | 0.0 | 0.0 | 0.00 | 0.00 | 0.00 | 100 | 935.1 | |
| 20260502031810 | 56 | 0.0 | 0.0 | 0.00 | 0.00 | 0.00 | 100 | 935.1 | |
| 20260502031310 | 57 | 0.0 | 0.0 | 0.00 | 0.00 | 0.00 | 100 | 935.1 | |
| 20260502030810 | 57 | 0.0 | 0.0 | 0.00 | 0.00 | 0.00 | 100 | 935.1 | |
| 20260502030310 | 57 | 0.0 | 0.0 | 0.00 | 0.00 | 0.00 | 100 | 935.1 | |
| 20260502025810 | 57 | 0.0 | 0.0 | 0.00 | 0.00 | 0.00 | 100 | 935.1 | |
| 20260502025310 | 57 | 0.0 | 0.0 | 0.00 | 0.00 | 0.00 | 100 | 935.2 | |
| 20260502024810 | 57 | 0.0 | 0.0 | 0.00 | 0.00 | 0.00 | 100 | 935.2 | |
| 20260502024310 | 57 | 0.0 | 0.0 | 0.00 | 0.00 | 0.00 | 100 | 935.3 | |
| 20260502023810 | 57 | 0.0 | 0.0 | 0.00 | 0.00 | 0.00 | 100 | 935.3 | |
| 20260502023310 | 58 | 0.0 | 0.0 | 0.00 | 0.00 | 0.00 | 100 | 935.3 | |
| 20260502022810 | 58 | 0.0 | 0.0 | 0.00 | 0.00 | 0.00 | 100 | 935.3 | |
| 20260502022310 | 57 | 0.0 | 0.0 | 0.00 | 0.00 | 0.00 | 100 | 935.3 | |
| 20260502021810 | 57 | 0.0 | 0.0 | 0.00 | 0.00 | 0.00 | 100 | 935.3 | |
| 20260502021310 | 58 | 0.0 | 0.0 | 0.00 | 0.00 | 0.00 | 100 | 935.3 | |
| 20260502020810 | 58 | 0.0 | 0.0 | 0.00 | 0.00 | 0.00 | 100 | 935.2 | |
| 20260502020310 | 58 | 0.0 | 0.0 | 0.00 | 0.00 | 0.00 | 100 | 935.2 | |
| 20260502015810 | 58 | 0.0 | 0.0 | 0.00 | 0.00 | 0.00 | 100 | 935.2 | |
| 20260502015310 | 58 | 0.0 | 0.0 | 0.00 | 0.00 | 0.00 | 100 | 935.3 | |
| 20260502014810 | 58 | 0.0 | 0.0 | 0.00 | 0.00 | 0.00 | 100 | 935.3 | |
| 20260502014310 | 58 | 0.0 | 0.0 | 0.00 | 0.00 | 0.00 | 100 | 935.3 | |
| 20260502013810 | 58 | 0.0 | 0.0 | 0.00 | 0.00 | 0.00 | 100 | 935.3 | |
| 20260502013310 | 59 | 0.0 | 0.0 | 0.00 | 0.00 | 0.00 | 100 | 935.2 | |
| 20260502012810 | 58 | 0.0 | 0.0 | 0.00 | 0.00 | 0.00 | 100 | 935.2 | |
| 20260502012310 | 59 | 0.0 | 0.0 | 0.00 | 0.00 | 0.00 | 100 | 935.2 | |
| 20260502011810 | 59 | 0.0 | 0.0 | 0.00 | 0.00 | 0.00 | 100 | 935.3 | |
| 20260502010942 | 59 | 0.0 | 0.0 | 0.00 | 0.00 | 0.00 | 100 | 935.3 | |
| 20260502010442 | 59 | 0.0 | 0.0 | 0.00 | 0.00 | 0.00 | 100 | 935.3 | |
| 20260502005942 | 59 | 0.0 | 0.0 | 0.00 | 0.00 | 0.00 | 100 | 935.3 | |
| 20260502005442 | 59 | 0.0 | 0.0 | 0.00 | 0.00 | 0.00 | 100 | 935.4 | |
| 20260502004942 | 59 | 0.0 | 0.0 | 0.00 | 0.00 | 0.00 | 100 | 935.4 | |
| 20260502004442 | 59 | 0.0 | 0.0 | 0.00 | 0.00 | 0.00 | 100 | 935.4 | |
| 20260502003942 | 60 | 0.0 | 0.0 | 0.00 | 0.00 | 0.00 | 100 | 935.4 | |
| 20260502003442 | 60 | 0.0 | 0.0 | 0.00 | 0.00 | 0.00 | 100 | 935.4 | |
| 20260502002942 | 60 | 0.0 | 0.0 | 0.00 | 0.00 | 0.00 | 100 | 935.5 | |
| 20260502002442 | 60 | 0.0 | 0.0 | 0.00 | 0.00 | 0.00 | 100 | 935.6 | |
| 20260502001942 | 60 | 0.0 | 0.0 | 0.00 | 0.00 | 0.00 | 100 | 935.6 | |
| 20260502001442 | 61 | 0.0 | 0.0 | 0.00 | 0.00 | 0.00 | 100 | 935.6 | |
| 20260502000942 | 60 | 0.0 | 0.0 | 0.00 | 0.00 | 0.00 | 100 | 935.7 | |
| 20260502000442 | 60 | 0.0 | 0.0 | 0.00 | 0.00 | 0.00 | 100 | 935.7 | |
| 20260501235942 | 61 | 0.0 | 0.0 | 0.00 | 0.00 | 0.00 | 100 | 935.7 | |
| 20260501235442 | 61 | 0.0 | 0.0 | 0.00 | 0.00 | 0.00 | 100 | 935.8 | |
| 20260501234942 | 61 | 0.0 | 0.0 | 0.00 | 0.00 | 0.00 | 100 | 935.7 | |
| 20260501234442 | 61 | 0.0 | 0.0 | 0.00 | 0.00 | 0.00 | 100 | 935.7 | |
| 20260501233942 | 61 | 0.0 | 0.0 | 0.00 | 0.00 | 0.00 | 100 | 935.7 | |
| 20260501233442 | 62 | 0.0 | 0.0 | 0.00 | 0.00 | 0.00 | 100 | 935.7 | |
| 20260501232942 | 62 | 0.0 | 0.0 | 0.00 | 0.00 | 0.00 | 100 | 935.8 | |
| 20260501232442 | 62 | 0.0 | 0.0 | 0.00 | 0.00 | 0.00 | 100 | 935.9 | |
| 20260501231942 | 62 | 0.0 | 0.0 | 0.00 | 0.00 | 0.00 | 100 | 935.9 | |
| 20260501231442 | 62 | 0.0 | 0.0 | 0.00 | 0.00 | 0.00 | 100 | 935.8 | |
| 20260501230942 | 62 | 0.0 | 0.0 | 0.00 | 0.00 | 0.00 | 100 | 935.9 | |
| 20260501230442 | 63 | 0.0 | 0.0 | 0.00 | 0.00 | 0.00 | 100 | 935.9 | |
| 20260501225942 | 63 | 0.0 | 0.0 | 0.00 | 0.00 | 0.00 | 100 | 935.9 | |
| 20260501225442 | 63 | 0.0 | 0.0 | 0.00 | 0.00 | 0.00 | 100 | 935.9 | |
| 20260501224942 | 63 | 0.0 | 0.0 | 0.00 | 0.00 | 0.00 | 100 | 935.9 | |
| 20260501224442 | 63 | 0.0 | 0.0 | 0.00 | 0.00 | 0.00 | 100 | 935.9 | |
| 20260501223942 | 63 | 0.0 | 0.0 | 0.00 | 0.00 | 0.00 | 100 | 935.9 | |
| 20260501223442 | 63 | 0.0 | 0.0 | 0.00 | 0.00 | 0.00 | 100 | 935.9 | |
| 20260501222942 | 63 | 0.0 | 0.0 | 0.00 | 0.00 | 0.00 | 100 | 935.9 | |
| 20260501222442 | 64 | 0.0 | 0.0 | 0.00 | 0.00 | 0.00 | 100 | 935.9 | |
| 20260501221942 | 64 | 0.0 | 0.0 | 0.00 | 0.00 | 0.00 | 100 | 935.9 | |
| 20260501221442 | 64 | 0.0 | 0.0 | 0.00 | 0.00 | 0.00 | 100 | 935.9 | |
| 20260501220942 | 64 | 0.0 | 0.0 | 0.00 | 0.00 | 0.00 | 100 | 935.9 | |
| 20260501220442 | 65 | 0.0 | 0.0 | 0.00 | 0.00 | 0.00 | 100 | 935.9 | |
| 20260501215942 | 65 | 0.0 | 0.0 | 0.00 | 0.00 | 0.00 | 100 | 935.9 | |
| 20260501215442 | 65 | 0.0 | 0.0 | 0.00 | 0.00 | 0.00 | 100 | 935.8 | |
| 20260501214942 | 65 | 0.0 | 0.0 | 0.00 | 0.00 | 0.00 | 100 | 935.8 |